createdAt,value
2023-01-11T00:01:04.874Z,0.57
2023-01-11T00:11:14.105Z,0.40
2023-01-11T00:21:15.615Z,0.30
2023-01-11T00:31:17.363Z,0.30
2023-01-11T00:41:38.510Z,0.30
2023-01-11T00:51:39.960Z,0.40
2023-01-11T01:01:41.479Z,0.30
2023-01-11T01:11:42.983Z,0.38
2023-01-11T01:21:44.560Z,0.40
2023-01-11T01:31:46.005Z,0.30
2023-01-11T01:41:47.452Z,0.30
2023-01-11T01:51:55.042Z,0.35
2023-01-11T02:01:56.615Z,0.20
2023-01-11T02:11:58.580Z,0.32
2023-01-11T02:22:17.207Z,0.30
2023-01-11T02:32:40.229Z,0.20
2023-01-11T02:43:12.084Z,0.20
2023-01-11T02:53:34.748Z,0.20
2023-01-11T03:03:36.325Z,0.30
2023-01-11T03:13:41.327Z,0.25
2023-01-11T03:23:53.591Z,0.32
2023-01-11T03:33:57.958Z,0.30
2023-01-11T03:44:01.428Z,0.20
2023-01-11T03:54:05.935Z,0.17
2023-01-11T04:04:07.432Z,0.10
2023-01-11T04:14:08.869Z,0.30
2023-01-11T04:24:10.747Z,0.10
2023-01-11T04:34:12.444Z,0.30
2023-01-11T04:44:13.916Z,0.10
2023-01-11T04:54:16.120Z,0.10
2023-01-11T05:04:17.684Z,0.10
2023-01-11T05:14:19.279Z,0.20
2023-01-11T05:24:20.799Z,0.20
2023-01-11T05:34:22.538Z,0.20
2023-01-11T05:44:42.433Z,0.30
2023-01-11T05:54:43.922Z,0.30
2023-01-11T06:04:45.427Z,0.30
2023-01-11T06:14:47.103Z,0.57
2023-01-11T06:24:48.550Z,0.57
2023-01-11T06:34:51.131Z,0.60
2023-01-11T06:44:52.626Z,0.90
2023-01-11T06:54:54.348Z,0.63
2023-01-11T07:04:55.820Z,0.95
2023-01-11T07:14:57.303Z,0.77
2023-01-11T07:24:58.803Z,1.25
2023-01-11T07:35:00.241Z,0.85
2023-01-11T07:45:01.752Z,0.80
2023-01-11T07:55:03.507Z,0.90
2023-01-11T08:05:05.302Z,1.05
2023-01-11T08:15:09.152Z,1.00
2023-01-11T08:25:11.334Z,0.93
2023-01-11T08:35:13.044Z,1.15
2023-01-11T08:45:14.536Z,0.95
2023-01-11T08:55:16.185Z,1.02
2023-01-11T09:05:18.462Z,1.10
2023-01-11T09:15:20.015Z,0.90
2023-01-11T09:25:21.755Z,0.93
2023-01-11T09:35:23.370Z,1.00
2023-01-11T09:45:28.353Z,1.17
2023-01-11T09:55:36.344Z,1.02
2023-01-11T10:05:37.852Z,0.70
2023-01-11T10:18:41.583Z,1.40
2023-01-11T10:26:37.061Z,1.05
2023-01-11T10:37:20.850Z,1.08
2023-01-11T10:47:26.822Z,1.20
2023-01-11T10:57:59.721Z,1.00
2023-01-11T11:08:15.056Z,0.90
2023-01-11T11:18:16.664Z,1.17
2023-01-11T11:28:32.022Z,1.20
2023-01-11T11:38:36.289Z,1.40
2023-01-11T11:48:37.826Z,1.38
2023-01-11T11:58:40.627Z,1.08
2023-01-11T12:08:42.438Z,1.10
2023-01-11T12:18:44.259Z,1.00
2023-01-11T12:28:51.679Z,1.25
2023-01-11T12:39:07.363Z,1.27
2023-01-11T12:49:33.386Z,1.30
2023-01-11T13:00:11.579Z,1.33
2023-01-11T13:10:29.307Z,1.20
2023-01-11T13:20:59.391Z,1.45
2023-01-11T13:31:04.129Z,1.25
2023-01-11T13:41:21.709Z,1.13
2023-01-11T13:51:31.135Z,1.20
2023-01-11T14:01:47.794Z,1.17
2023-01-11T14:12:01.025Z,1.52
2023-01-11T14:22:33.785Z,1.58
2023-01-11T14:33:05.545Z,1.42
2023-01-11T14:43:25.855Z,1.20
2023-01-11T14:53:29.649Z,1.40
2023-01-11T15:03:50.407Z,1.75
2023-01-11T15:13:57.413Z,1.33
2023-01-11T15:23:58.928Z,1.23
2023-01-11T15:34:05.943Z,1.42
2023-01-11T15:44:23.027Z,1.35
2023-01-11T15:54:36.075Z,1.33
2023-01-11T16:04:51.874Z,1.73
2023-01-11T16:15:05.441Z,1.20
2023-01-11T16:25:07.868Z,1.25
2023-01-11T16:35:24.112Z,1.20
2023-01-11T16:45:39.994Z,1.13
2023-01-11T16:55:47.474Z,1.42
2023-01-11T17:06:14.643Z,1.02
2023-01-11T17:16:17.265Z,1.42
2023-01-11T17:26:24.858Z,1.45
2023-01-11T17:36:26.747Z,1.70
2023-01-11T17:46:28.321Z,1.15
2023-01-11T17:56:32.894Z,1.60
2023-01-11T18:06:37.355Z,1.10
2023-01-11T18:16:57.017Z,1.40
2023-01-11T18:27:18.969Z,1.70
2023-01-11T18:37:20.814Z,1.33
2023-01-11T18:47:25.436Z,1.88
2023-01-11T18:57:26.993Z,1.40
2023-01-11T19:07:28.544Z,1.52
2023-01-11T19:17:31.571Z,1.42
2023-01-11T19:27:33.108Z,1.20
2023-01-11T19:37:34.799Z,1.52
2023-01-11T19:47:36.284Z,1.25
2023-01-11T19:57:37.847Z,1.30
2023-01-11T20:07:39.344Z,1.35
2023-01-11T20:17:40.913Z,1.67
2023-01-11T20:27:42.405Z,1.33
2023-01-11T20:37:43.911Z,1.42
2023-01-11T20:47:45.416Z,1.50
2023-01-11T20:57:51.400Z,1.20
2023-01-11T21:07:53.161Z,1.08
2023-01-11T21:17:54.655Z,1.40
2023-01-11T21:27:56.184Z,1.20
2023-01-11T21:37:59.963Z,1.00
2023-01-11T21:48:01.497Z,1.33
2023-01-11T21:58:02.954Z,1.00
2023-01-11T22:08:04.523Z,1.10
2023-01-11T22:18:06.257Z,1.10
2023-01-11T22:28:07.741Z,1.05
2023-01-11T22:38:09.178Z,1.20
2023-01-11T22:48:10.649Z,1.05
2023-01-11T22:58:12.423Z,1.00
2023-01-11T23:08:14.294Z,1.00
2023-01-11T23:18:15.762Z,1.40
2023-01-11T23:28:17.244Z,1.23
2023-01-11T23:38:18.742Z,1.40
2023-01-11T23:48:20.214Z,1.10
2023-01-11T23:58:21.651Z,1.02
